Time;durP1;ratioP1;P1;durP2;ratioP2;P2;SDS_P1;SDS_P2;PMS_P1;PMS_P2;Temp;Humidity;BMP_temperature;BMP_pressure;BME280_temperature;BME280_humidity;BME280_pressure;Samples;Min_cycle;Max_cycle;Signal;HPM_P1;HPM_P2
2024/03/21 00:01:35;;;;;;;30.50;10.20;;;;;;;-147.86;100.00;-17609.17;105513;1257;61254;-49
2024/03/21 00:04:02;;;;;;;33.40;11.60;;;;;;;-147.86;100.00;-17609.17;105646;1258;61340;-47
2024/03/21 00:06:29;;;;;;;42.60;12.20;;;;;;;-147.86;100.00;-17609.17;105621;1260;73663;-48
2024/03/21 00:08:56;;;;;;;41.90;12.30;;;;;;;-147.86;100.00;-17609.17;105601;1260;65433;-45
2024/03/21 00:11:23;;;;;;;40.20;12.20;;;;;;;-147.86;100.00;-17609.17;105595;1258;72407;-47
2024/03/21 00:13:50;;;;;;;34.80;12.40;;;;;;;-147.86;100.00;-17609.17;105582;1260;61193;-48
2024/03/21 00:16:17;;;;;;;38.30;12.40;;;;;;;-147.86;100.00;-17609.17;105588;1258;61149;-47
2024/03/21 00:18:44;;;;;;;31.00;11.00;;;;;;;-147.86;100.00;-17609.17;105615;1260;74720;-46
2024/03/21 00:21:11;;;;;;;34.30;11.90;;;;;;;-147.86;100.00;-17609.17;105605;1260;65498;-46
2024/03/21 00:23:37;;;;;;;44.30;12.00;;;;;;;-147.86;100.00;-17609.17;105619;1260;71572;-45
2024/03/21 00:26:05;;;;;;;39.10;12.30;;;;;;;-147.86;100.00;-17609.17;105591;1258;61209;-45
2024/03/21 00:28:32;;;;;;;43.10;12.80;;;;;;;-147.86;100.00;-17609.17;105619;1262;61247;-46
2024/03/21 00:31:00;;;;;;;39.60;12.70;;;;;;;-147.86;100.00;-17609.17;105637;1257;74652;-48
2024/03/21 00:33:27;;;;;;;35.00;11.40;;;;;;;-147.86;100.00;-17609.17;105673;1257;65552;-47
2024/03/21 00:35:54;;;;;;;37.60;11.40;;;;;;;-147.86;100.00;-17609.17;105881;1257;72624;-46
2024/03/21 00:38:21;;;;;;;52.70;11.70;;;;;;;-147.86;100.00;-17609.17;105846;1256;61155;-46
2024/03/21 00:40:48;;;;;;;30.10;10.90;;;;;;;-147.86;100.00;-17520.70;105897;1254;61256;-44
2024/03/21 00:43:16;;;;;;;39.50;12.10;;;;;;;-147.86;100.00;-17051.30;105883;1254;74634;-47
2024/03/21 00:45:44;;;;;;;40.70;11.40;;;;;;;-147.86;100.00;-16206.15;105968;1256;65456;-44
2024/03/21 00:48:11;;;;;;;33.20;12.60;;;;;;;-147.86;100.00;-15260.45;105861;1254;72520;-46
2024/03/21 00:50:38;;;;;;;42.20;12.90;;;;;;;-147.86;100.00;-14184.90;105894;1257;61134;-48
2024/03/21 00:53:05;;;;;;;41.30;12.50;;;;;;;-147.86;100.00;-13269.22;105880;1254;61247;-48
2024/03/21 00:55:32;;;;;;;34.70;12.10;;;;;;;-147.86;100.00;-12587.23;105857;1254;74682;-46
2024/03/21 00:57:59;;;;;;;43.60;13.00;;;;;;;-147.86;100.00;-12053.41;105851;1256;65487;-47
2024/03/21 01:00:26;;;;;;;36.10;12.10;;;;;;;-147.86;100.00;-11862.31;105909;1254;71543;-48
2024/03/21 01:02:53;;;;;;;47.70;14.00;;;;;;;-147.86;100.00;-11707.87;105975;1253;61248;-46
2024/03/21 01:05:20;;;;;;;42.50;13.20;;;;;;;-147.86;100.00;-11404.79;105945;1254;61262;-45
2024/03/21 01:07:47;;;;;;;47.70;13.70;;;;;;;-147.86;100.00;-11171.57;105840;1255;74741;-47
2024/03/21 01:10:14;;;;;;;36.70;12.10;;;;;;;-147.86;100.00;-11105.94;105893;1253;65218;-49
2024/03/21 01:12:43;;;;;;;38.90;12.60;;;;;;;-147.86;100.00;-10999.36;105760;1254;72651;-45
2024/03/21 01:15:11;;;;;;;33.20;11.70;;;;;;;-147.86;100.00;-11670.07;105695;1257;61248;-45
2024/03/21 01:17:37;;;;;;;47.50;13.70;;;;;;;-147.86;100.00;-12384.28;105738;1254;61272;-47
2024/03/21 01:20:06;;;;;;;36.20;12.20;;;;;;;-147.86;100.00;-13107.98;105729;1257;74559;-47
2024/03/21 01:22:33;;;;;;;35.00;12.70;;;;;;;-147.86;100.00;-14008.26;105729;1254;64014;-47
2024/03/21 01:25:00;;;;;;;37.10;11.60;;;;;;;-147.86;100.00;-14413.38;105739;1255;72547;-46
2024/03/21 01:27:26;;;;;;;50.00;12.80;;;;;;;-147.86;100.00;-14629.42;105674;1257;61215;-45
2024/03/21 01:29:53;;;;;;;43.50;13.40;;;;;;;-147.86;100.00;-14757.12;105699;1254;61200;-47
2024/03/21 01:32:21;;;;;;;37.50;13.40;;;;;;;-147.86;100.00;-15028.69;105676;1254;74591;-47
2024/03/21 01:34:49;;;;;;;42.70;13.40;;;;;;;-147.86;100.00;-15397.06;105736;1254;65522;-47
2024/03/21 01:37:15;;;;;;;47.00;12.60;;;;;;;-147.86;100.00;-15570.62;105699;1254;71547;-46
2024/03/21 01:39:42;;;;;;;48.60;13.30;;;;;;;-147.86;100.00;-15566.38;105689;1254;61253;-46
2024/03/21 01:42:11;;;;;;;51.70;13.50;;;;;;;-147.86;100.00;-15425.20;105664;1254;61214;-46
2024/03/21 01:44:38;;;;;;;40.60;12.60;;;;;;;-147.86;100.00;-15266.65;105734;1257;74689;-45
2024/03/21 01:47:04;;;;;;;36.20;13.30;;;;;;;-147.86;100.00;-14711.95;105717;1253;64669;-47
2024/03/21 01:49:31;;;;;;;42.50;14.20;;;;;;;-147.86;100.00;-14294.13;105701;1254;72573;-49
2024/03/21 01:51:58;;;;;;;47.90;14.50;;;;;;;-147.86;100.00;-13932.98;105654;1257;61190;-47
2024/03/21 01:54:24;;;;;;;45.10;12.70;;;;;;;-147.86;100.00;-13462.21;105516;1254;61353;-50
2024/03/21 01:56:53;;;;;;;31.90;12.60;;;;;;;-147.86;100.00;-13112.19;105425;1259;73526;-45
2024/03/21 01:59:20;;;;;;;40.70;13.30;;;;;;;-147.86;100.00;-12972.45;105421;1257;65324;-47
2024/03/21 02:01:49;;;;;;;35.50;12.70;;;;;;;-147.86;100.00;-12402.75;105586;1257;72637;-46
2024/03/21 02:04:16;;;;;;;35.30;13.50;;;;;;;-147.86;100.00;-12306.63;105644;1257;61167;-49
2024/03/21 02:06:43;;;;;;;32.50;12.80;;;;;;;-147.86;100.00;-12014.42;105807;1253;61250;-47
2024/03/21 02:09:10;;;;;;;26.00;12.30;;;;;;;-147.86;100.00;-11926.79;105750;1257;73750;-49
2024/03/21 02:11:37;;;;;;;39.50;11.90;;;;;;;-147.86;100.00;-12282.74;105690;1253;64516;-52
2024/03/21 02:14:04;;;;;;;42.70;12.40;;;;;;;-147.86;100.00;-12531.71;105720;1257;72336;-48
2024/03/21 02:16:31;;;;;;;30.30;12.50;;;;;;;-147.86;100.00;-12843.97;105715;1259;61387;-45
2024/03/21 02:18:58;;;;;;;34.60;13.30;;;;;;;-147.86;100.00;-13111.44;105720;1253;61257;-51
2024/03/21 02:24:10;;;;;;;41.40;12.40;;;;;;;-147.86;100.00;-16184.56;105707;1254;64677;-46
2024/03/21 02:26:37;;;;;;;37.00;12.50;;;;;;;-147.86;100.00;-16223.17;105750;1253;72400;-47
2024/03/21 02:29:05;;;;;;;42.50;12.80;;;;;;;-147.86;100.00;-16581.79;105661;1254;61138;-46
2024/03/21 02:31:32;;;;;;;42.80;13.70;;;;;;;-147.86;100.00;-16909.15;105702;1253;61346;-48
2024/03/21 02:33:59;;;;;;;37.90;13.30;;;;;;;-147.86;100.00;-17237.15;105750;1257;74576;-46
2024/03/21 02:36:26;;;;;;;43.60;13.10;;;;;;;-147.86;100.00;-17473.86;105699;1254;65365;-46
2024/03/21 02:38:53;;;;;;;35.40;12.50;;;;;;;-147.86;100.00;-17609.17;105684;1257;72651;-45
2024/03/21 02:41:20;;;;;;;41.30;13.20;;;;;;;-147.86;100.00;-17609.17;105734;1253;61242;-45
2024/03/21 02:43:46;;;;;;;43.10;13.10;;;;;;;-147.86;100.00;-17609.17;105723;1253;61273;-48
2024/03/21 02:46:14;;;;;;;32.70;13.70;;;;;;;-147.86;100.00;-17609.17;105735;1255;74594;-46
2024/03/21 02:48:41;;;;;;;41.10;14.30;;;;;;;-147.86;100.00;-17609.17;105709;1254;64630;-46
2024/03/21 02:51:08;;;;;;;27.80;12.30;;;;;;;-147.86;100.00;-17609.17;105735;1254;72894;-48
2024/03/21 02:53:35;;;;;;;31.40;12.90;;;;;;;-147.86;100.00;-17609.17;105661;1253;61161;-47
2024/03/21 02:56:02;;;;;;;43.60;13.80;;;;;;;-147.86;100.00;-17609.17;105717;1253;61427;-47
2024/03/21 02:58:29;;;;;;;37.00;14.50;;;;;;;-147.86;100.00;-17609.17;105690;1257;74481;-46
2024/03/21 03:00:56;;;;;;;38.90;14.30;;;;;;;-147.86;100.00;-17609.17;105672;1257;64359;-47
2024/03/21 03:03:23;;;;;;;42.30;14.30;;;;;;;-147.86;100.00;-17609.17;105752;1254;72628;-46
2024/03/21 03:05:50;;;;;;;31.20;14.10;;;;;;;-147.86;100.00;-17609.17;105711;1253;61205;-46
2024/03/21 03:08:17;;;;;;;43.00;13.50;;;;;;;-147.86;100.00;-17609.17;105695;1254;61264;-46
2024/03/21 03:10:43;;;;;;;27.90;12.80;;;;;;;-147.86;100.00;-17609.17;105691;1254;74576;-46
2024/03/21 03:13:10;;;;;;;33.40;12.80;;;;;;;-147.86;100.00;-17609.17;105675;1253;64745;-48
2024/03/21 03:15:37;;;;;;;39.60;13.80;;;;;;;-147.86;100.00;-17609.17;105767;1253;72616;-46
2024/03/21 03:18:04;;;;;;;36.00;14.00;;;;;;;-147.86;100.00;-17609.17;105688;1257;61231;-47
2024/03/21 03:20:31;;;;;;;44.80;13.90;;;;;;;-147.86;100.00;-17609.17;105701;1253;61325;-47
2024/03/21 03:22:58;;;;;;;32.90;12.60;;;;;;;-147.86;100.00;-17609.17;105663;1254;74623;-47
2024/03/21 03:25:25;;;;;;;38.10;13.50;;;;;;;-147.86;100.00;-17609.17;105688;1257;63548;-47
2024/03/21 03:27:54;;;;;;;36.10;14.10;;;;;;;-147.86;100.00;-17609.17;105743;1253;72573;-46
2024/03/21 03:30:21;;;;;;;39.40;14.90;;;;;;;-147.86;100.00;-17609.17;105681;1256;61167;-45
2024/03/21 03:32:57;;;;;;;39.30;13.80;;;;;;;-147.86;100.00;-17609.17;105653;1253;61334;-48
2024/03/21 03:35:39;;;;;;;33.80;12.70;;;;;;;-147.86;100.00;-17609.17;105741;1254;74516;-47
2024/03/21 03:38:08;;;;;;;41.50;13.10;;;;;;;-147.86;100.00;-17609.17;105753;1254;64327;-48
2024/03/21 03:40:35;;;;;;;30.70;13.30;;;;;;;-147.86;100.00;-17609.17;105681;1253;72660;-48
2024/03/21 03:43:03;;;;;;;35.00;14.40;;;;;;;-147.86;100.00;-17609.17;105720;1257;62678;-46
2024/03/21 03:45:30;;;;;;;29.80;13.20;;;;;;;-147.86;100.00;-17609.17;105479;1254;405249;-47
2024/03/21 03:50:08;;;;;;;35.80;14.20;;;;;;;-147.86;100.00;-12161.59;102924;1285;603218;-45
2024/03/21 03:52:36;;;;;;;41.80;13.60;;;;;;;-147.86;100.00;-17608.88;105113;1268;59652;-46
2024/03/21 03:55:03;;;;;;;40.80;14.60;;;;;;;-147.86;100.00;-17609.17;105127;1266;60108;-46
2024/03/21 03:57:30;;;;;;;34.70;13.50;;;;;;;-147.86;100.00;-17609.17;105160;1264;72944;-46
2024/03/21 03:59:58;;;;;;;34.20;13.80;;;;;;;-147.86;100.00;-17609.17;105055;1269;65385;-46
2024/03/21 04:02:27;;;;;;;37.90;14.30;;;;;;;-147.86;100.00;-17609.17;104954;1262;236349;-48
2024/03/21 04:04:54;;;;;;;34.60;13.80;;;;;;;-147.86;100.00;-17609.17;105227;1266;61167;-44
2024/03/21 04:07:21;;;;;;;39.40;14.20;;;;;;;-147.86;100.00;-17609.17;105633;1256;60276;-45
2024/03/21 04:09:48;;;;;;;37.00;14.40;;;;;;;-147.86;100.00;-17609.17;105658;1255;73404;-45
2024/03/21 04:12:15;;;;;;;42.80;16.00;;;;;;;-147.86;100.00;-17609.17;105663;1259;64827;-46
2024/03/21 04:14:45;;;;;;;45.50;15.70;;;;;;;-147.86;100.00;-17609.17;105628;1256;72333;-46
2024/03/21 04:17:12;;;;;;;37.40;15.00;;;;;;;-147.86;100.00;-17609.17;105620;1256;60838;-47
2024/03/21 04:19:39;;;;;;;32.00;15.10;;;;;;;-147.86;100.00;-17609.17;105601;1256;60453;-44
2024/03/21 04:22:06;;;;;;;37.60;15.10;;;;;;;-147.86;100.00;-17609.17;105675;1257;72759;-46
2024/03/21 04:24:33;;;;;;;40.00;15.10;;;;;;;-147.86;100.00;-17609.17;105672;1256;63336;-45
2024/03/21 04:26:59;;;;;;;40.00;16.10;;;;;;;-147.86;100.00;-17609.17;105644;1257;72482;-46
2024/03/21 04:29:27;;;;;;;29.10;15.30;;;;;;;-147.86;100.00;-17609.17;105617;1259;60918;-46
2024/03/21 04:31:54;;;;;;;39.80;14.90;;;;;;;-147.86;100.00;-17609.17;105691;1256;60534;-45
2024/03/21 04:34:20;;;;;;;45.00;14.70;;;;;;;-147.86;100.00;-17609.17;105614;1256;73833;-48
2024/03/21 04:36:47;;;;;;;35.80;15.90;;;;;;;-147.86;100.00;-17609.17;105356;1259;65539;-47
2024/03/21 04:39:14;;;;;;;31.70;15.20;;;;;;;-147.86;100.00;-17609.17;105324;1259;72482;-49
2024/03/21 04:41:41;;;;;;;35.90;15.50;;;;;;;-147.86;100.00;-17609.17;105526;1259;61193;-48
2024/03/21 04:44:08;;;;;;;38.80;15.90;;;;;;;-147.86;100.00;-17609.17;105651;1256;60473;-47
2024/03/21 04:46:35;;;;;;;33.00;16.30;;;;;;;-147.86;100.00;-17609.17;105589;1256;73638;-47
2024/03/21 04:49:02;;;;;;;35.90;16.10;;;;;;;-147.86;100.00;-17609.17;105655;1257;65435;-48
2024/03/21 04:51:29;;;;;;;42.10;16.50;;;;;;;-147.86;100.00;-17609.17;105607;1259;72552;-47
2024/03/21 04:53:56;;;;;;;31.00;14.70;;;;;;;-147.86;100.00;-17609.17;105534;1259;60901;-47
2024/03/21 04:56:22;;;;;;;34.50;16.30;;;;;;;-147.86;100.00;-17609.17;105903;1253;60442;-44
2024/03/21 04:58:51;;;;;;;33.40;15.40;;;;;;;-147.86;100.00;-17609.17;105866;1255;73790;-44
2024/03/21 05:01:18;;;;;;;35.30;15.80;;;;;;;-147.86;100.00;-17609.17;105897;1257;65154;-48
2024/03/21 05:03:46;;;;;;;36.80;16.20;;;;;;;-147.86;100.00;-17609.17;105836;1253;72643;-47
2024/03/21 05:06:13;;;;;;;35.30;15.80;;;;;;;-147.86;100.00;-17609.17;105895;1252;61509;-45
2024/03/21 05:08:39;;;;;;;34.20;16.00;;;;;;;-147.86;100.00;-17609.17;105891;1252;60549;-46
2024/03/21 05:11:07;;;;;;;35.60;16.80;;;;;;;-147.86;100.00;-17609.17;105865;1256;73647;-46
2024/03/21 05:13:34;;;;;;;34.60;16.20;;;;;;;-147.86;100.00;-17609.17;105870;1256;65464;-47
2024/03/21 05:16:00;;;;;;;34.40;15.90;;;;;;;-147.86;100.00;-17609.17;105888;1253;72582;-46
2024/03/21 05:18:27;;;;;;;39.60;16.70;;;;;;;-147.86;100.00;-17609.17;105847;1257;61236;-46
2024/03/21 05:20:54;;;;;;;33.40;15.10;;;;;;;-147.86;100.00;-17609.17;105818;1253;60531;-45
2024/03/21 05:23:21;;;;;;;37.40;17.80;;;;;;;-147.86;100.00;-17609.17;105846;1253;73788;-45
2024/03/21 05:25:48;;;;;;;36.30;16.50;;;;;;;-147.86;100.00;-17609.17;105888;1257;65113;-45
2024/03/21 05:28:15;;;;;;;38.30;16.20;;;;;;;-147.86;100.00;-17609.17;105823;1252;72474;-46
2024/03/21 05:30:42;;;;;;;40.00;15.90;;;;;;;-147.86;100.00;-17609.17;105832;1257;61099;-46
2024/03/21 05:33:10;;;;;;;42.70;15.60;;;;;;;-147.86;100.00;-17544.02;105921;1253;60469;-46
2024/03/21 05:35:37;;;;;;;35.60;17.60;;;;;;;-147.86;100.00;-17603.96;105860;1257;73789;-47
2024/03/21 05:38:04;;;;;;;42.40;16.40;;;;;;;-147.86;100.00;-17537.85;105808;1257;65336;-46
2024/03/21 05:40:31;;;;;;;32.20;15.30;;;;;;;-147.86;100.00;-17155.13;105849;1253;72697;-47
2024/03/21 05:42:57;;;;;;;31.70;15.00;;;;;;;-147.86;100.00;-16876.77;105914;1256;60416;-46
2024/03/21 05:45:24;;;;;;;31.30;16.50;;;;;;;-147.86;100.00;-17123.91;105864;1253;60560;-44
2024/03/21 05:47:51;;;;;;;36.90;16.20;;;;;;;-147.86;100.00;-17468.08;105879;1253;73694;-46
2024/03/21 05:50:18;;;;;;;32.30;16.40;;;;;;;-147.86;100.00;-17325.44;105842;1256;65625;-47
2024/03/21 05:52:45;;;;;;;38.90;16.70;;;;;;;-147.86;100.00;-16986.27;105815;1253;72655;-47
2024/03/21 05:55:13;;;;;;;35.90;16.90;;;;;;;-147.86;100.00;-16424.87;105872;1253;60398;-46
2024/03/21 05:57:40;;;;;;;36.60;16.80;;;;;;;-147.86;100.00;-16442.61;105842;1253;60520;-47
2024/03/21 06:00:12;;;;;;;39.20;16.40;;;;;;;-147.86;100.00;-16375.90;105865;1253;72830;-46
2024/03/21 06:02:41;;;;;;;40.50;16.80;;;;;;;-147.86;100.00;-16328.86;105889;1257;66634;-46
2024/03/21 06:05:08;;;;;;;40.70;17.30;;;;;;;-147.86;100.00;-16096.71;105848;1253;73904;-45
2024/03/21 06:07:34;;;;;;;33.30;16.20;;;;;;;-147.86;100.00;-15753.09;105824;1256;62373;-45
2024/03/21 06:10:01;;;;;;;31.10;15.80;;;;;;;-147.86;100.00;-16028.84;105910;1252;60394;-45
2024/03/21 06:12:29;;;;;;;35.50;16.40;;;;;;;-147.86;100.00;-16743.37;105916;1254;75282;-48
2024/03/21 06:14:56;;;;;;;36.10;16.70;;;;;;;-147.86;100.00;-16979.71;105874;1252;65338;-44
2024/03/21 06:17:22;;;;;;;35.90;17.40;;;;;;;-147.86;100.00;-16463.43;105850;1253;72367;-46
2024/03/21 06:19:49;;;;;;;38.70;16.30;;;;;;;-147.86;100.00;-16045.42;105819;1256;60976;-48
2024/03/21 06:22:16;;;;;;;35.80;17.00;;;;;;;-147.86;100.00;-15905.43;105856;1253;60538;-46
2024/03/21 06:24:42;;;;;;;30.80;16.30;;;;;;;-147.86;100.00;-15815.57;105839;1254;73526;-46
2024/03/21 06:27:09;;;;;;;31.60;16.90;;;;;;;-147.86;100.00;-16011.48;105887;1257;65424;-45
2024/03/21 06:29:36;;;;;;;39.40;17.80;;;;;;;-147.86;100.00;-15836.40;105837;1253;72648;-47
2024/03/21 06:32:03;;;;;;;38.30;16.60;;;;;;;-147.86;100.00;-15640.47;105857;1256;60322;-45
2024/03/21 06:34:30;;;;;;;38.40;16.60;;;;;;;-147.86;100.00;-15417.93;105939;1253;61407;-45
2024/03/21 06:36:57;;;;;;;40.50;17.00;;;;;;;-147.86;100.00;-15213.88;105841;1257;74967;-47
2024/03/21 06:39:24;;;;;;;40.20;16.70;;;;;;;-147.86;100.00;-15115.91;105709;1257;66822;-46
2024/03/21 06:41:51;;;;;;;31.10;17.50;;;;;;;-147.86;100.00;-15075.41;105834;1253;73789;-45
2024/03/21 06:44:18;;;;;;;38.00;17.50;;;;;;;-147.86;100.00;-15049.95;105873;1257;60768;-46
2024/03/21 06:46:45;;;;;;;38.90;16.90;;;;;;;-147.86;100.00;-15039.53;105828;1253;61452;-47
2024/03/21 06:49:11;;;;;;;40.00;16.60;;;;;;;-147.86;100.00;-15147.54;105876;1253;73680;-45
2024/03/21 06:51:38;;;;;;;31.30;17.90;;;;;;;-147.86;100.00;-15025.65;105863;1257;65471;-45
2024/03/21 06:54:05;;;;;;;34.20;16.00;;;;;;;-147.86;100.00;-14896.81;105908;1253;72472;-47
2024/03/21 06:56:32;;;;;;;40.50;17.20;;;;;;;-147.86;100.00;-14818.11;105827;1257;60702;-47
2024/03/21 06:58:59;;;;;;;35.60;17.40;;;;;;;-147.86;100.00;-14820.81;105862;1252;60505;-46
2024/03/21 07:01:26;;;;;;;36.40;16.80;;;;;;;-147.86;100.00;-14797.28;105777;1256;73913;-45
2024/03/21 07:03:53;;;;;;;45.90;16.60;;;;;;;-147.86;100.00;-14744.81;105870;1253;66210;-47
2024/03/21 07:06:21;;;;;;;39.30;19.10;;;;;;;-147.86;100.00;-15127.87;105854;1257;74124;-46
2024/03/21 07:08:48;;;;;;;37.10;17.80;;;;;;;-147.86;100.00;-14892.17;105861;1257;60717;-48
2024/03/21 07:11:15;;;;;;;30.80;17.70;;;;;;;-147.86;100.00;-14551.54;105820;1252;61344;-48
2024/03/21 07:13:42;;;;;;;31.10;16.40;;;;;;;-147.86;100.00;-14454.70;105909;1257;75001;-47
2024/03/21 07:16:10;;;;;;;32.90;16.60;;;;;;;-147.86;100.00;-14611.72;105933;1256;64513;-48
2024/03/21 07:18:37;;;;;;;34.70;17.20;;;;;;;-147.86;100.00;-14976.65;105837;1253;70746;-46
2024/03/21 07:21:04;;;;;;;37.80;17.50;;;;;;;-147.86;100.00;-15250.14;105859;1257;60641;-46
2024/03/21 07:23:32;;;;;;;29.70;16.10;;;;;;;-147.86;100.00;-15505.10;105850;1252;61430;-49
2024/03/21 07:25:59;;;;;;;30.40;16.70;;;;;;;-147.86;100.00;-15355.06;105842;1253;73970;-44
2024/03/21 07:28:28;;;;;;;35.40;15.40;;;;;;;-147.86;100.00;-14895.26;105924;1256;64565;-45
2024/03/21 07:30:55;;;;;;;33.90;16.50;;;;;;;-147.86;100.00;-14201.99;105807;1253;72813;-48
2024/03/21 07:33:22;;;;;;;33.60;17.10;;;;;;;-147.86;100.00;-13919.17;105892;1257;61660;-48
2024/03/21 07:35:54;;;;;;;33.50;17.30;;;;;;;-147.86;100.00;-13831.19;105893;1253;61660;-47
2024/03/21 07:38:21;;;;;;;33.10;16.80;;;;;;;-147.86;100.00;-13652.15;105896;1253;75076;-47
2024/03/21 07:40:57;;;;;;;32.90;17.10;;;;;;;-147.86;100.00;-14114.40;105880;1257;64535;-47
2024/03/21 07:43:25;;;;;;;37.00;17.30;;;;;;;-147.86;100.00;-14448.53;105810;1253;74170;-47
2024/03/21 07:45:52;;;;;;;35.80;17.60;;;;;;;-147.86;100.00;-14393.74;105839;1256;61496;-48
2024/03/21 07:48:19;;;;;;;30.00;16.30;;;;;;;-147.86;100.00;-15361.99;105871;1253;60559;-49
2024/03/21 07:50:46;;;;;;;28.30;15.40;;;;;;;-147.86;100.00;-15066.53;105861;1254;74873;-48
2024/03/21 07:53:13;;;;;;;35.50;17.50;;;;;;;-147.86;100.00;-16157.21;105882;1257;65781;-48
2024/03/21 07:55:43;;;;;;;31.50;17.60;;;;;;;-147.86;100.00;-17410.54;105847;1253;73805;-47
2024/03/21 07:58:10;;;;;;;35.80;18.90;;;;;;;-147.86;100.00;-17609.17;105841;1257;62297;-48
2024/03/21 08:00:37;;;;;;;31.50;16.30;;;;;;;-147.86;100.00;-17609.17;105872;1253;61988;-48
2024/03/21 08:03:04;;;;;;;32.10;17.60;;;;;;;-147.86;100.00;-17609.17;105854;1257;76158;-49
2024/03/21 08:05:31;;;;;;;31.00;16.80;;;;;;;-147.86;100.00;-17609.17;105879;1256;65848;-47
2024/03/21 08:07:58;;;;;;;35.70;17.80;;;;;;;-147.86;100.00;-17609.17;105830;1253;73988;-48
2024/03/21 08:10:25;;;;;;;36.20;17.10;;;;;;;-147.86;100.00;-17609.17;105859;1257;61527;-47
2024/03/21 08:12:52;;;;;;;31.40;16.70;;;;;;;-147.86;100.00;-17609.17;105871;1257;61430;-47
2024/03/21 08:15:19;;;;;;;40.50;17.10;;;;;;;-147.86;100.00;-17609.17;105878;1254;74912;-46
2024/03/21 08:17:48;;;;;;;34.50;17.50;;;;;;;-147.86;100.00;-17609.17;105906;1257;65059;-47
2024/03/21 08:20:15;;;;;;;41.60;17.10;;;;;;;-147.86;100.00;-17609.17;105855;1253;74050;-48
2024/03/21 08:22:42;;;;;;;30.70;16.00;;;;;;;-147.86;100.00;-17609.17;105860;1257;61246;-46
2024/03/21 08:25:09;;;;;;;29.60;15.80;;;;;;;-147.86;100.00;-17609.17;105840;1253;61713;-49
2024/03/21 08:27:37;;;;;;;34.50;16.30;;;;;;;-147.86;100.00;-17609.17;105862;1253;75967;-47
2024/03/21 08:30:05;;;;;;;31.50;15.40;;;;;;;-147.86;100.00;-17609.17;105861;1256;65941;-47
2024/03/21 08:32:32;;;;;;;27.90;15.50;;;;;;;-147.86;100.00;-17609.17;105873;1259;71622;-46
2024/03/21 08:34:59;;;;;;;34.30;15.90;;;;;;;-147.86;100.00;-17609.17;105885;1253;61148;-49
2024/03/21 08:37:26;;;;;;;34.50;15.10;;;;;;;-147.86;100.00;-17609.17;105939;1253;61633;-47
2024/03/21 08:39:54;;;;;;;29.50;16.60;;;;;;;-147.86;100.00;-17609.17;105898;1253;76170;-48
2024/03/21 08:42:21;;;;;;;29.50;14.50;;;;;;;-147.86;100.00;-17609.17;105831;1253;66179;-47
2024/03/21 08:44:48;;;;;;;34.80;15.70;;;;;;;-147.86;100.00;-17609.17;105951;1253;72709;-50
2024/03/21 08:47:15;;;;;;;25.10;14.20;;;;;;;-147.86;100.00;-17609.17;105856;1257;62663;-47
2024/03/21 08:49:42;;;;;;;29.30;15.40;;;;;;;-147.86;100.00;-17609.17;105894;1253;61688;-49
2024/03/21 08:52:09;;;;;;;30.10;14.80;;;;;;;-147.86;100.00;-17609.17;105811;1253;75074;-48
2024/03/21 08:54:36;;;;;;;37.40;15.70;;;;;;;-147.86;100.00;-17609.17;105805;1256;66134;-48
2024/03/21 08:57:03;;;;;;;30.90;15.40;;;;;;;-147.86;100.00;-17609.17;105862;1253;73775;-49
2024/03/21 08:59:31;;;;;;;29.00;15.10;;;;;;;-147.86;100.00;-17609.17;105978;1257;61894;-47
2024/03/21 09:01:57;;;;;;;25.50;14.60;;;;;;;-147.86;100.00;-17609.17;105833;1253;61433;-50
2024/03/21 09:04:24;;;;;;;32.30;15.90;;;;;;;-147.86;100.00;-17609.17;105882;1256;76063;-47
2024/03/21 09:06:51;;;;;;;28.30;14.50;;;;;;;-147.86;100.00;-17609.17;105822;1253;65934;-48
2024/03/21 09:09:18;;;;;;;26.80;14.60;;;;;;;-147.86;100.00;-17212.96;105822;1254;74009;-51
2024/03/21 09:11:45;;;;;;;30.20;14.50;;;;;;;-147.86;100.00;-17312.22;105890;1256;61346;-48
2024/03/21 09:14:12;;;;;;;23.80;15.50;;;;;;;-147.86;100.00;-17609.17;105883;1253;61327;-48
2024/03/21 09:16:39;;;;;;;25.70;13.40;;;;;;;-147.86;100.00;-17608.59;105896;1257;75774;-47
2024/03/21 09:19:06;;;;;;;31.50;15.10;;;;;;;-147.86;100.00;-17608.30;105903;1257;65868;-50
2024/03/21 09:21:33;;;;;;;30.40;15.60;;;;;;;-147.86;100.00;-17609.17;105741;1255;74001;-48
2024/03/21 09:24:00;;;;;;;29.60;13.70;;;;;;;-147.86;100.00;-15978.89;105556;1257;61420;-47
2024/03/21 09:26:27;;;;;;;24.90;14.20;;;;;;;-147.86;100.00;-12373.72;105738;1253;61250;-48
2024/03/21 09:28:54;;;;;;;27.70;14.00;;;;;;;-147.86;100.00;-9952.05;105783;1257;75923;-47
2024/03/21 09:31:21;;;;;;;25.30;13.00;;;;;;;-147.86;100.00;-9012.43;105802;1257;66141;-51
2024/03/21 09:33:51;;;;;;;24.40;12.80;;;;;;;-147.86;100.00;-4410.37;105863;1259;74411;-48
2024/03/21 09:36:18;;;;;;;24.10;12.10;;;;;;;-147.86;100.00;-3717.43;105823;1253;61600;-49
2024/03/21 09:38:45;;;;;;;28.60;13.10;;;;;;;-147.86;100.00;-3222.04;105777;1253;61292;-49
2024/03/21 09:41:13;;;;;;;23.70;12.80;;;;;;;-147.86;100.00;-1141.46;105803;1256;74809;-50
2024/03/21 09:43:40;;;;;;;28.20;12.20;;;;;;;-147.86;99.24;5455.22;105762;1259;65883;-48
2024/03/21 09:46:07;;;;;;;23.50;12.50;;;;;;;-147.86;99.99;5852.02;105881;1253;73780;-48
2024/03/21 09:48:35;;;;;;;21.00;12.10;;;;;;;-147.86;99.94;5008.27;105662;1253;61776;-51
2024/03/21 09:51:09;;;;;;;21.00;11.70;;;;;;;-147.86;100.00;6745.75;105862;1258;61147;-49
2024/03/21 09:53:37;;;;;;;26.70;11.80;;;;;;;-147.86;100.00;5504.53;105759;1253;74669;-51
2024/03/21 09:56:04;;;;;;;19.30;9.90;;;;;;;-147.86;100.00;5405.32;105854;1258;67017;-47
2024/03/21 09:58:31;;;;;;;22.10;11.10;;;;;;;-147.86;97.31;12313.41;105673;1253;72638;-47
2024/03/21 10:00:58;;;;;;;22.00;11.20;;;;;;;-147.86;95.69;25511.48;105832;1256;61245;-50
2024/03/21 10:03:25;;;;;;;21.10;10.30;;;;;;;-147.86;96.73;27058.54;105826;1257;61999;-49
2024/03/21 10:06:08;;;;;;;22.90;10.00;;;;;;;-147.86;95.50;33701.93;105838;1253;76120;-46
2024/03/21 10:08:35;;;;;;;19.20;9.70;;;;;;;-147.86;95.82;37243.11;105812;1257;64908;-50
2024/03/21 10:11:02;;;;;;;15.70;9.90;;;;;;;-147.86;95.61;38042.38;105877;1253;72973;-48
2024/03/21 10:13:29;;;;;;;17.70;10.50;;;;;;;-147.86;93.77;41369.45;105791;1253;61501;-49
2024/03/21 10:15:56;;;;;;;22.50;10.10;;;;;;;-147.86;92.92;43344.90;105876;1254;61676;-47
2024/03/21 10:18:23;;;;;;;21.70;10.00;;;;;;;-147.86;92.33;45693.51;105848;1257;75853;-47
2024/03/21 10:20:50;;;;;;;18.40;9.20;;;;;;;-147.86;91.90;46114.35;105846;1256;64975;-49
2024/03/21 10:23:17;;;;;;;22.20;9.80;;;;;;;-147.86;85.72;47892.27;105635;1253;73924;-50
2024/03/21 10:25:48;;;;;;;19.50;9.70;;;;;;;-147.86;86.23;49095.61;105634;1258;61525;-48
2024/03/21 10:28:18;;;;;;;20.90;9.30;;;;;;;-147.86;89.83;49302.28;105783;1253;61337;-50
2024/03/21 10:30:45;;;;;;;20.30;9.60;;;;;;;-147.86;88.25;49360.32;105817;1253;75851;-49
2024/03/21 10:33:19;;;;;;;17.00;9.30;;;;;;;-147.86;86.11;49678.80;105805;1253;66891;-49
2024/03/21 10:35:46;;;;;;;26.50;10.00;;;;;;;-147.86;87.98;49899.23;105828;1252;71625;-46
2024/03/21 10:38:15;;;;;;;21.90;9.90;;;;;;;-147.86;87.65;49967.87;105684;1258;61375;-55
2024/03/21 10:40:56;;;;;;;22.00;9.40;;;;;;;-147.86;88.57;50072.21;105855;1259;61167;-52
2024/03/21 10:43:22;;;;;;;15.00;9.50;;;;;;;-147.86;89.60;50120.06;105676;1253;75926;-52
2024/03/21 10:45:50;;;;;;;28.40;9.70;;;;;;;-147.86;90.69;50078.48;105829;1253;66894;-51
2024/03/21 10:48:30;;;;;;;20.40;9.20;;;;;;;-147.86;88.15;50164.39;105792;1253;73943;-54